sensor_id;sensor_type;location;lat;lon;timestamp;pressure;altitude;pressure_sealevel;temperature;humidity
73306;BME280;61530;51.158;0.880;2023-11-19T00:00:29;1005.99;;;11.0625;100
73306;BME280;61530;51.158;0.880;2023-11-19T00:01:32;1005.93;;;11.0625;100
73306;BME280;61530;51.158;0.880;2023-11-19T00:02:35;1005.93;;;11.0;100
73306;BME280;61530;51.158;0.880;2023-11-19T00:03:38;1005.88;;;11.0625;100
73306;BME280;61530;51.158;0.880;2023-11-19T00:04:41;1005.9;;;11.0625;100
73306;BME280;61530;51.158;0.880;2023-11-19T00:05:44;1005.97;;;11.0625;100
73306;BME280;61530;51.158;0.880;2023-11-19T00:06:47;1005.9;;;11.125;100
73306;BME280;61530;51.158;0.880;2023-11-19T00:07:50;1005.89;;;11.125;100
73306;BME280;61530;51.158;0.880;2023-11-19T00:08:53;1005.9;;;11.0625;100
73306;BME280;61530;51.158;0.880;2023-11-19T00:09:56;1005.88;;;11.125;100
73306;BME280;61530;51.158;0.880;2023-11-19T00:10:59;1005.86;;;11.0;100
73306;BME280;61530;51.158;0.880;2023-11-19T00:12:03;1005.85;;;11.125;100
73306;BME280;61530;51.158;0.880;2023-11-19T00:13:05;1005.83;;;11.0625;100
73306;BME280;61530;51.158;0.880;2023-11-19T00:14:08;1005.92;;;11.0625;100
73306;BME280;61530;51.158;0.880;2023-11-19T00:15:12;1005.9;;;11.0;100
73306;BME280;61530;51.158;0.880;2023-11-19T00:16:14;1005.86;;;11.0;100
73306;BME280;61530;51.158;0.880;2023-11-19T00:17:17;1005.86;;;10.9375;100
73306;BME280;61530;51.158;0.880;2023-11-19T00:18:20;1005.84;;;10.9375;100
73306;BME280;61530;51.158;0.880;2023-11-19T00:19:23;1005.84;;;10.9375;100
73306;BME280;61530;51.158;0.880;2023-11-19T00:20:26;1005.81;;;11.0;100
73306;BME280;61530;51.158;0.880;2023-11-19T00:21:29;1005.88;;;11.0;100
73306;BME280;61530;51.158;0.880;2023-11-19T00:22:32;1005.92;;;10.875;100
73306;BME280;61530;51.158;0.880;2023-11-19T00:23:35;1005.96;;;10.875;100
73306;BME280;61530;51.158;0.880;2023-11-19T00:24:38;1005.92;;;10.9375;100
73306;BME280;61530;51.158;0.880;2023-11-19T00:25:41;1005.93;;;10.875;100
73306;BME280;61530;51.158;0.880;2023-11-19T00:26:44;1005.92;;;10.875;100
73306;BME280;61530;51.158;0.880;2023-11-19T00:27:51;1005.96;;;10.875;100
73306;BME280;61530;51.158;0.880;2023-11-19T00:28:51;1005.98;;;10.8125;100
73306;BME280;61530;51.158;0.880;2023-11-19T00:29:54;1006.01;;;10.875;100
73306;BME280;61530;51.158;0.880;2023-11-19T00:30:57;1005.93;;;10.875;100
73306;BME280;61530;51.158;0.880;2023-11-19T00:32:00;1005.97;;;10.8125;100
73306;BME280;61530;51.158;0.880;2023-11-19T00:33:03;1005.99;;;10.75;100
73306;BME280;61530;51.158;0.880;2023-11-19T00:34:06;1005.97;;;10.8125;100
73306;BME280;61530;51.158;0.880;2023-11-19T00:35:09;1005.97;;;10.875;100
73306;BME280;61530;51.158;0.880;2023-11-19T00:36:12;1005.89;;;10.9375;100
73306;BME280;61530;51.158;0.880;2023-11-19T00:37:15;1005.89;;;11.0;100
73306;BME280;61530;51.158;0.880;2023-11-19T00:38:18;1005.87;;;10.875;100
73306;BME280;61530;51.158;0.880;2023-11-19T00:39:21;1005.79;;;11.0;100
73306;BME280;61530;51.158;0.880;2023-11-19T00:40:24;1005.8;;;10.9375;100
73306;BME280;61530;51.158;0.880;2023-11-19T00:41:27;1005.77;;;10.9375;100
73306;BME280;61530;51.158;0.880;2023-11-19T00:42:30;1005.73;;;10.9375;100
73306;BME280;61530;51.158;0.880;2023-11-19T00:43:33;1005.74;;;10.9375;100
73306;BME280;61530;51.158;0.880;2023-11-19T00:44:36;1005.73;;;10.875;100
73306;BME280;61530;51.158;0.880;2023-11-19T00:45:39;1005.73;;;10.875;100
73306;BME280;61530;51.158;0.880;2023-11-19T00:46:42;1005.7;;;10.8125;100
73306;BME280;61530;51.158;0.880;2023-11-19T00:47:45;1005.65;;;10.875;100
73306;BME280;61530;51.158;0.880;2023-11-19T00:48:48;1005.66;;;10.8125;100
73306;BME280;61530;51.158;0.880;2023-11-19T00:49:51;1005.61;;;10.8125;100
73306;BME280;61530;51.158;0.880;2023-11-19T00:50:55;1005.64;;;10.875;100
73306;BME280;61530;51.158;0.880;2023-11-19T00:51:58;1005.57;;;10.875;100
73306;BME280;61530;51.158;0.880;2023-11-19T00:53:01;1005.52;;;10.8125;100
73306;BME280;61530;51.158;0.880;2023-11-19T00:54:04;1005.53;;;10.8125;100
73306;BME280;61530;51.158;0.880;2023-11-19T00:55:07;1005.57;;;10.6875;100
73306;BME280;61530;51.158;0.880;2023-11-19T00:56:11;1005.5;;;10.75;100
73306;BME280;61530;51.158;0.880;2023-11-19T00:57:13;1005.48;;;10.8125;100
73306;BME280;61530;51.158;0.880;2023-11-19T00:58:16;1005.51;;;10.8125;100
73306;BME280;61530;51.158;0.880;2023-11-19T00:59:19;1005.51;;;10.8125;100
73306;BME280;61530;51.158;0.880;2023-11-19T01:00:22;1005.48;;;10.75;100
73306;BME280;61530;51.158;0.880;2023-11-19T01:01:25;1005.45;;;10.75;100
73306;BME280;61530;51.158;0.880;2023-11-19T01:02:28;1005.42;;;10.75;100
73306;BME280;61530;51.158;0.880;2023-11-19T01:03:31;1005.42;;;10.8125;100
73306;BME280;61530;51.158;0.880;2023-11-19T01:04:35;1005.46;;;10.8125;100
73306;BME280;61530;51.158;0.880;2023-11-19T01:05:37;1005.44;;;10.75;100
73306;BME280;61530;51.158;0.880;2023-11-19T01:06:40;1005.46;;;10.8125;100
73306;BME280;61530;51.158;0.880;2023-11-19T01:07:43;1005.45;;;10.75;100
73306;BME280;61530;51.158;0.880;2023-11-19T01:08:46;1005.54;;;10.75;99.5746
73306;BME280;61530;51.158;0.880;2023-11-19T01:09:49;1005.57;;;10.6875;100
73306;BME280;61530;51.158;0.880;2023-11-19T01:10:52;1005.61;;;10.6875;100
73306;BME280;61530;51.158;0.880;2023-11-19T01:11:55;1005.66;;;10.6875;97.6901
73306;BME280;61530;51.158;0.880;2023-11-19T01:12:58;1005.63;;;10.6875;100
73306;BME280;61530;51.158;0.880;2023-11-19T01:14:02;1005.64;;;10.6875;100
73306;BME280;61530;51.158;0.880;2023-11-19T01:15:05;1005.62;;;10.6875;100
73306;BME280;61530;51.158;0.880;2023-11-19T01:16:08;1005.67;;;10.6875;99.9572
73306;BME280;61530;51.158;0.880;2023-11-19T01:17:11;1005.71;;;10.75;100
73306;BME280;61530;51.158;0.880;2023-11-19T01:18:14;1005.66;;;10.6875;100
73306;BME280;61530;51.158;0.880;2023-11-19T01:19:17;1005.74;;;10.6875;100
73306;BME280;61530;51.158;0.880;2023-11-19T01:20:20;1005.74;;;10.75;100
73306;BME280;61530;51.158;0.880;2023-11-19T01:21:23;1005.73;;;10.75;100
73306;BME280;61530;51.158;0.880;2023-11-19T01:22:26;1005.7;;;10.8125;100
73306;BME280;61530;51.158;0.880;2023-11-19T01:23:29;1005.66;;;10.6875;100
73306;BME280;61530;51.158;0.880;2023-11-19T01:24:32;1005.64;;;10.75;100
73306;BME280;61530;51.158;0.880;2023-11-19T01:25:36;1005.61;;;10.75;100
73306;BME280;61530;51.158;0.880;2023-11-19T01:26:38;1005.6;;;10.6875;100
73306;BME280;61530;51.158;0.880;2023-11-19T01:27:42;1005.6;;;10.6875;100
73306;BME280;61530;51.158;0.880;2023-11-19T01:28:45;1005.6;;;10.625;100
73306;BME280;61530;51.158;0.880;2023-11-19T01:29:47;1005.55;;;10.6875;100
73306;BME280;61530;51.158;0.880;2023-11-19T01:30:51;1005.58;;;10.625;100
73306;BME280;61530;51.158;0.880;2023-11-19T01:31:53;1005.56;;;10.625;100
73306;BME280;61530;51.158;0.880;2023-11-19T01:32:57;1005.53;;;10.6875;100
73306;BME280;61530;51.158;0.880;2023-11-19T01:34:02;1005.55;;;10.625;100
73306;BME280;61530;51.158;0.880;2023-11-19T01:35:05;1005.56;;;10.6875;100
73306;BME280;61530;51.158;0.880;2023-11-19T01:36:08;1005.54;;;10.625;100
73306;BME280;61530;51.158;0.880;2023-11-19T01:37:10;1005.56;;;10.625;100
73306;BME280;61530;51.158;0.880;2023-11-19T01:38:13;1005.55;;;10.625;100
73306;BME280;61530;51.158;0.880;2023-11-19T01:39:17;1005.54;;;10.625;100
73306;BME280;61530;51.158;0.880;2023-11-19T01:40:20;1005.48;;;10.75;100
73306;BME280;61530;51.158;0.880;2023-11-19T01:41:22;1005.55;;;10.6875;100
73306;BME280;61530;51.158;0.880;2023-11-19T01:42:26;1005.56;;;10.625;100
73306;BME280;61530;51.158;0.880;2023-11-19T01:43:37;1005.62;;;10.6875;100
73306;BME280;61530;51.158;0.880;2023-11-19T01:44:32;1005.57;;;10.625;100
73306;BME280;61530;51.158;0.880;2023-11-19T01:45:36;1005.51;;;10.625;100
73306;BME280;61530;51.158;0.880;2023-11-19T01:46:40;1005.56;;;10.625;100
73306;BME280;61530;51.158;0.880;2023-11-19T01:47:41;1005.56;;;10.625;100
73306;BME280;61530;51.158;0.880;2023-11-19T01:48:45;1005.62;;;10.6875;100
73306;BME280;61530;51.158;0.880;2023-11-19T01:49:47;1005.65;;;10.6875;100
73306;BME280;61530;51.158;0.880;2023-11-19T01:50:50;1005.67;;;10.75;100
73306;BME280;61530;51.158;0.880;2023-11-19T01:51:53;1005.68;;;10.6875;100
73306;BME280;61530;51.158;0.880;2023-11-19T01:52:57;1005.64;;;10.6875;100
73306;BME280;61530;51.158;0.880;2023-11-19T01:53:59;1005.64;;;10.6875;100
73306;BME280;61530;51.158;0.880;2023-11-19T01:55:03;1005.6;;;10.625;100
73306;BME280;61530;51.158;0.880;2023-11-19T01:56:08;1005.64;;;10.6875;100
73306;BME280;61530;51.158;0.880;2023-11-19T01:57:09;1005.63;;;10.5625;100
73306;BME280;61530;51.158;0.880;2023-11-19T01:58:11;1005.68;;;10.6875;100
73306;BME280;61530;51.158;0.880;2023-11-19T01:59:14;1005.7;;;10.625;100
73306;BME280;61530;51.158;0.880;2023-11-19T02:00:18;1005.63;;;10.625;100
73306;BME280;61530;51.158;0.880;2023-11-19T02:01:20;1005.74;;;10.6875;100
73306;BME280;61530;51.158;0.880;2023-11-19T02:02:23;1005.62;;;10.625;100
73306;BME280;61530;51.158;0.880;2023-11-19T02:03:26;1005.68;;;10.625;100
73306;BME280;61530;51.158;0.880;2023-11-19T02:04:29;1005.61;;;10.5625;100
73306;BME280;61530;51.158;0.880;2023-11-19T02:05:32;1005.66;;;10.5625;100
73306;BME280;61530;51.158;0.880;2023-11-19T02:06:40;1005.62;;;10.5625;100
73306;BME280;61530;51.158;0.880;2023-11-19T02:07:38;1005.72;;;10.6875;100
73306;BME280;61530;51.158;0.880;2023-11-19T02:08:41;1005.76;;;10.6875;100
73306;BME280;61530;51.158;0.880;2023-11-19T02:09:44;1005.76;;;10.625;100
73306;BME280;61530;51.158;0.880;2023-11-19T02:10:47;1005.79;;;10.5625;100
73306;BME280;61530;51.158;0.880;2023-11-19T02:11:50;1005.79;;;10.5625;100
73306;BME280;61530;51.158;0.880;2023-11-19T02:12:53;1005.75;;;10.625;100
73306;BME280;61530;51.158;0.880;2023-11-19T02:14:12;1005.79;;;10.625;100
73306;BME280;61530;51.158;0.880;2023-11-19T02:15:15;1005.83;;;10.625;100
73306;BME280;61530;51.158;0.880;2023-11-19T02:16:18;1005.69;;;10.5625;100
73306;BME280;61530;51.158;0.880;2023-11-19T02:17:29;1005.7;;;10.625;100
73306;BME280;61530;51.158;0.880;2023-11-19T02:18:25;1005.71;;;10.5625;100
73306;BME280;61530;51.158;0.880;2023-11-19T02:19:28;1005.69;;;10.625;100
73306;BME280;61530;51.158;0.880;2023-11-19T02:20:31;1005.73;;;10.5625;100
73306;BME280;61530;51.158;0.880;2023-11-19T02:21:34;1005.69;;;10.625;100
73306;BME280;61530;51.158;0.880;2023-11-19T02:22:37;1005.73;;;10.5625;100
73306;BME280;61530;51.158;0.880;2023-11-19T02:23:39;1005.71;;;10.625;100
73306;BME280;61530;51.158;0.880;2023-11-19T02:24:43;1005.7;;;10.5;100
73306;BME280;61530;51.158;0.880;2023-11-19T02:25:51;1005.71;;;10.5625;100
73306;BME280;61530;51.158;0.880;2023-11-19T02:26:55;1005.71;;;10.4375;100
73306;BME280;61530;51.158;0.880;2023-11-19T02:27:54;1005.66;;;10.5625;100
73306;BME280;61530;51.158;0.880;2023-11-19T02:28:55;1005.76;;;10.4375;100
73306;BME280;61530;51.158;0.880;2023-11-19T02:29:58;1005.78;;;10.4375;100
73306;BME280;61530;51.158;0.880;2023-11-19T02:31:01;1005.77;;;10.375;99.9463
73306;BME280;61530;51.158;0.880;2023-11-19T02:32:04;1005.8;;;10.4375;99.4079
73306;BME280;61530;51.158;0.880;2023-11-19T02:33:06;1005.75;;;10.375;99.6373
73306;BME280;61530;51.158;0.880;2023-11-19T02:34:10;1005.79;;;10.375;100
73306;BME280;61530;51.158;0.880;2023-11-19T02:35:13;1005.75;;;10.375;100
73306;BME280;61530;51.158;0.880;2023-11-19T02:36:16;1005.73;;;10.3125;100
73306;BME280;61530;51.158;0.880;2023-11-19T02:37:19;1005.72;;;10.3125;100
73306;BME280;61530;51.158;0.880;2023-11-19T02:38:22;1005.76;;;10.375;99.9849
73306;BME280;61530;51.158;0.880;2023-11-19T02:39:24;1005.76;;;10.375;99.8444
73306;BME280;61530;51.158;0.880;2023-11-19T02:40:27;1005.71;;;10.4375;100
73306;BME280;61530;51.158;0.880;2023-11-19T02:41:30;1005.72;;;10.375;100
73306;BME280;61530;51.158;0.880;2023-11-19T02:42:33;1005.73;;;10.4375;100
73306;BME280;61530;51.158;0.880;2023-11-19T02:43:37;1005.72;;;10.375;100
73306;BME280;61530;51.158;0.880;2023-11-19T02:44:43;1005.7;;;10.3125;99.3417
73306;BME280;61530;51.158;0.880;2023-11-19T02:45:43;1005.7;;;10.375;99.6542
73306;BME280;61530;51.158;0.880;2023-11-19T02:46:45;1005.67;;;10.25;100
73306;BME280;61530;51.158;0.880;2023-11-19T02:47:49;1005.65;;;10.25;100
73306;BME280;61530;51.158;0.880;2023-11-19T02:48:52;1005.72;;;10.3125;98.4494
73306;BME280;61530;51.158;0.880;2023-11-19T02:49:54;1005.68;;;10.3125;98.0723
73306;BME280;61530;51.158;0.880;2023-11-19T02:50:57;1005.67;;;10.3125;100
73306;BME280;61530;51.158;0.880;2023-11-19T02:52:01;1005.68;;;10.3125;96.4667
73306;BME280;61530;51.158;0.880;2023-11-19T02:53:04;1005.73;;;10.3125;99.6695
73306;BME280;61530;51.158;0.880;2023-11-19T02:54:07;1005.71;;;10.375;99.4519
73306;BME280;61530;51.158;0.880;2023-11-19T02:55:11;1005.61;;;10.375;99.6086
73306;BME280;61530;51.158;0.880;2023-11-19T02:56:13;1005.65;;;10.375;99.9398
73306;BME280;61530;51.158;0.880;2023-11-19T02:57:16;1005.64;;;10.375;97.5001
73306;BME280;61530;51.158;0.880;2023-11-19T02:58:19;1005.58;;;10.4375;99.4883
73306;BME280;61530;51.158;0.880;2023-11-19T02:59:22;1005.69;;;10.375;100
73306;BME280;61530;51.158;0.880;2023-11-19T03:00:25;1005.66;;;10.4375;99.0903
73306;BME280;61530;51.158;0.880;2023-11-19T03:01:28;1005.67;;;10.4375;94.3755
73306;BME280;61530;51.158;0.880;2023-11-19T03:02:31;1005.57;;;10.375;97.6567
73306;BME280;61530;51.158;0.880;2023-11-19T03:03:34;1005.64;;;10.375;100
73306;BME280;61530;51.158;0.880;2023-11-19T03:04:37;1005.66;;;10.375;100
73306;BME280;61530;51.158;0.880;2023-11-19T03:05:40;1005.68;;;10.375;97.2516
73306;BME280;61530;51.158;0.880;2023-11-19T03:06:44;1005.64;;;10.375;100
73306;BME280;61530;51.158;0.880;2023-11-19T03:07:46;1005.64;;;10.4375;96.886
73306;BME280;61530;51.158;0.880;2023-11-19T03:08:49;1005.65;;;10.375;99.5008
73306;BME280;61530;51.158;0.880;2023-11-19T03:09:52;1005.68;;;10.5;96.8261
73306;BME280;61530;51.158;0.880;2023-11-19T03:10:55;1005.65;;;10.4375;96.4536
73306;BME280;61530;51.158;0.880;2023-11-19T03:11:58;1005.66;;;10.375;95.9791
73306;BME280;61530;51.158;0.880;2023-11-19T03:13:02;1005.62;;;10.3125;96.2043
73306;BME280;61530;51.158;0.880;2023-11-19T03:14:04;1005.57;;;10.4375;98.8212
73306;BME280;61530;51.158;0.880;2023-11-19T03:15:08;1005.6;;;10.375;98.1892
73306;BME280;61530;51.158;0.880;2023-11-19T03:16:10;1005.55;;;10.375;95.5146
73306;BME280;61530;51.158;0.880;2023-11-19T03:17:13;1005.55;;;10.375;95.534
73306;BME280;61530;51.158;0.880;2023-11-19T03:18:16;1005.53;;;10.3125;98.6744
73306;BME280;61530;51.158;0.880;2023-11-19T03:19:19;1005.49;;;10.375;97.0087
73306;BME280;61530;51.158;0.880;2023-11-19T03:20:22;1005.49;;;10.375;98.895
73306;BME280;61530;51.158;0.880;2023-11-19T03:21:28;1005.48;;;10.4375;98.5583
73306;BME280;61530;51.158;0.880;2023-11-19T03:22:28;1005.5;;;10.4375;96.6264
73306;BME280;61530;51.158;0.880;2023-11-19T03:23:31;1005.46;;;10.5625;99.4308
73306;BME280;61530;51.158;0.880;2023-11-19T03:24:34;1005.46;;;10.5625;98.8172
73306;BME280;61530;51.158;0.880;2023-11-19T03:25:37;1005.49;;;10.625;96.7394
73306;BME280;61530;51.158;0.880;2023-11-19T03:26:40;1005.55;;;10.5625;97.3249
73306;BME280;61530;51.158;0.880;2023-11-19T03:27:43;1005.52;;;10.625;100
73306;BME280;61530;51.158;0.880;2023-11-19T03:28:46;1005.51;;;10.5;100
73306;BME280;61530;51.158;0.880;2023-11-19T03:29:49;1005.48;;;10.5625;100
73306;BME280;61530;51.158;0.880;2023-11-19T03:30:52;1005.53;;;10.5625;100
73306;BME280;61530;51.158;0.880;2023-11-19T03:31:55;1005.54;;;10.5;97.3858
73306;BME280;61530;51.158;0.880;2023-11-19T03:32:58;1005.51;;;10.5;96.9794
73306;BME280;61530;51.158;0.880;2023-11-19T03:34:02;1005.49;;;10.5625;100
73306;BME280;61530;51.158;0.880;2023-11-19T03:35:05;1005.46;;;10.5625;99.8543
73306;BME280;61530;51.158;0.880;2023-11-19T03:36:08;1005.43;;;10.5625;100
73306;BME280;61530;51.158;0.880;2023-11-19T03:37:10;1005.42;;;10.5;97.2948
73306;BME280;61530;51.158;0.880;2023-11-19T03:38:14;1005.43;;;10.625;97.2336
73306;BME280;61530;51.158;0.880;2023-11-19T03:39:17;1005.42;;;10.5625;98.7155
73306;BME280;61530;51.158;0.880;2023-11-19T03:40:20;1005.4;;;10.5625;98.317
73306;BME280;61530;51.158;0.880;2023-11-19T03:41:23;1005.39;;;10.6875;99.1095
73306;BME280;61530;51.158;0.880;2023-11-19T03:42:26;1005.32;;;10.6875;100
73306;BME280;61530;51.158;0.880;2023-11-19T03:43:31;1005.31;;;10.75;99.9341
73306;BME280;61530;51.158;0.880;2023-11-19T03:44:32;1005.28;;;10.625;97.6976
73306;BME280;61530;51.158;0.880;2023-11-19T03:45:35;1005.27;;;10.625;99.4135
73306;BME280;61530;51.158;0.880;2023-11-19T03:46:38;1005.28;;;10.625;99.8635
73306;BME280;61530;51.158;0.880;2023-11-19T03:47:42;1005.29;;;10.625;98.21
73306;BME280;61530;51.158;0.880;2023-11-19T03:48:46;1005.33;;;10.625;100
73306;BME280;61530;51.158;0.880;2023-11-19T03:49:48;1005.26;;;10.5625;100
73306;BME280;61530;51.158;0.880;2023-11-19T03:50:50;1005.28;;;10.5625;98.9311
73306;BME280;61530;51.158;0.880;2023-11-19T03:51:53;1005.23;;;10.5625;100
73306;BME280;61530;51.158;0.880;2023-11-19T03:52:56;1005.22;;;10.5;99.0746
73306;BME280;61530;51.158;0.880;2023-11-19T03:53:59;1005.19;;;10.5625;100
73306;BME280;61530;51.158;0.880;2023-11-19T03:55:03;1005.17;;;10.5625;99.4334
73306;BME280;61530;51.158;0.880;2023-11-19T03:56:06;1005.25;;;10.5625;100
73306;BME280;61530;51.158;0.880;2023-11-19T03:57:08;1005.18;;;10.5625;97.8246
73306;BME280;61530;51.158;0.880;2023-11-19T03:58:11;1005.23;;;10.5625;97.0193
73306;BME280;61530;51.158;0.880;2023-11-19T03:59:14;1005.28;;;10.5;96.0301
73306;BME280;61530;51.158;0.880;2023-11-19T04:00:18;1005.28;;;10.4375;98.1142
73306;BME280;61530;51.158;0.880;2023-11-19T04:01:20;1005.22;;;10.5;98.9252
73306;BME280;61530;51.158;0.880;2023-11-19T04:02:23;1005.26;;;10.4375;98.0208
73306;BME280;61530;51.158;0.880;2023-11-19T04:03:26;1005.21;;;10.5;98.0074
73306;BME280;61530;51.158;0.880;2023-11-19T04:04:29;1005.21;;;10.4375;97.0947
73306;BME280;61530;51.158;0.880;2023-11-19T04:05:32;1005.26;;;10.625;97.3328
73306;BME280;61530;51.158;0.880;2023-11-19T04:06:36;1005.26;;;10.5625;98.9282
73306;BME280;61530;51.158;0.880;2023-11-19T04:07:38;1005.31;;;10.5625;97.1495
73306;BME280;61530;51.158;0.880;2023-11-19T04:08:42;1005.32;;;10.5;96.7273
73306;BME280;61530;51.158;0.880;2023-11-19T04:09:44;1005.33;;;10.5;97.8768
73306;BME280;61530;51.158;0.880;2023-11-19T04:10:48;1005.34;;;10.625;98.2734
73306;BME280;61530;51.158;0.880;2023-11-19T04:11:51;1005.32;;;10.625;97.8094
73306;BME280;61530;51.158;0.880;2023-11-19T04:12:55;1005.3;;;10.5625;100
73306;BME280;61530;51.158;0.880;2023-11-19T04:13:57;1005.22;;;10.625;98.9334
73306;BME280;61530;51.158;0.880;2023-11-19T04:15:00;1005.4;;;10.625;99.151
73306;BME280;61530;51.158;0.880;2023-11-19T04:16:04;1005.42;;;10.6875;97.9806
73306;BME280;61530;51.158;0.880;2023-11-19T04:17:06;1005.44;;;10.6875;100
73306;BME280;61530;51.158;0.880;2023-11-19T04:18:09;1005.44;;;10.625;98.2382
73306;BME280;61530;51.158;0.880;2023-11-19T04:19:13;1005.41;;;10.625;95.9142
73306;BME280;61530;51.158;0.880;2023-11-19T04:20:15;1005.42;;;10.625;97.7095
73306;BME280;61530;51.158;0.880;2023-11-19T04:21:18;1005.4;;;10.625;96.3029
73306;BME280;61530;51.158;0.880;2023-11-19T04:22:22;1005.4;;;10.5625;96.7582
73306;BME280;61530;51.158;0.880;2023-11-19T04:23:25;1005.37;;;10.5625;97.2397
73306;BME280;61530;51.158;0.880;2023-11-19T04:24:27;1005.32;;;10.5625;95.7496
73306;BME280;61530;51.158;0.880;2023-11-19T04:25:30;1005.41;;;10.625;96.928
73306;BME280;61530;51.158;0.880;2023-11-19T04:26:33;1005.34;;;10.625;97.1407
73306;BME280;61530;51.158;0.880;2023-11-19T04:27:36;1005.39;;;10.5625;96.8077
73306;BME280;61530;51.158;0.880;2023-11-19T04:28:40;1005.35;;;10.5;97.3209
73306;BME280;61530;51.158;0.880;2023-11-19T04:29:42;1005.38;;;10.625;95.8927
73306;BME280;61530;51.158;0.880;2023-11-19T04:30:45;1005.35;;;10.5625;97.7177
73306;BME280;61530;51.158;0.880;2023-11-19T04:31:49;1005.37;;;10.625;99.9869
73306;BME280;61530;51.158;0.880;2023-11-19T04:32:52;1005.38;;;10.5625;98.034
73306;BME280;61530;51.158;0.880;2023-11-19T04:33:54;1005.48;;;10.625;100
73306;BME280;61530;51.158;0.880;2023-11-19T04:34:57;1005.41;;;10.5625;98.891
73306;BME280;61530;51.158;0.880;2023-11-19T04:36:01;1005.42;;;10.625;98.3021
73306;BME280;61530;51.158;0.880;2023-11-19T04:37:04;1005.5;;;10.625;98.8468
73306;BME280;61530;51.158;0.880;2023-11-19T04:38:08;1005.5;;;10.6875;99.1978
73306;BME280;61530;51.158;0.880;2023-11-19T04:39:11;1005.48;;;10.625;100
73306;BME280;61530;51.158;0.880;2023-11-19T04:40:14;1005.5;;;10.5625;98.9471
73306;BME280;61530;51.158;0.880;2023-11-19T04:41:17;1005.49;;;10.5625;96.856
73306;BME280;61530;51.158;0.880;2023-11-19T04:42:22;1005.44;;;10.5;96.8106
73306;BME280;61530;51.158;0.880;2023-11-19T04:43:23;1005.43;;;10.5;97.6136
73306;BME280;61530;51.158;0.880;2023-11-19T04:44:26;1005.46;;;10.5625;96.9448
73306;BME280;61530;51.158;0.880;2023-11-19T04:45:29;1005.45;;;10.5625;98.1202
73306;BME280;61530;51.158;0.880;2023-11-19T04:46:32;1005.38;;;10.6875;96.764
73306;BME280;61530;51.158;0.880;2023-11-19T04:47:35;1005.43;;;10.625;96.9263
73306;BME280;61530;51.158;0.880;2023-11-19T04:48:39;1005.5;;;10.625;98.729
73306;BME280;61530;51.158;0.880;2023-11-19T04:49:42;1005.42;;;10.6875;95.9422
73306;BME280;61530;51.158;0.880;2023-11-19T04:50:45;1005.39;;;10.5625;100
73306;BME280;61530;51.158;0.880;2023-11-19T04:51:48;1005.41;;;10.625;96.8063
73306;BME280;61530;51.158;0.880;2023-11-19T04:52:51;1005.37;;;10.75;98.732
73306;BME280;61530;51.158;0.880;2023-11-19T04:53:54;1005.4;;;10.8125;94.6501
73306;BME280;61530;51.158;0.880;2023-11-19T04:54:57;1005.43;;;10.75;97.0673
73306;BME280;61530;51.158;0.880;2023-11-19T04:56:00;1005.39;;;10.6875;97.454
73306;BME280;61530;51.158;0.880;2023-11-19T04:57:04;1005.42;;;10.625;96.4864
73306;BME280;61530;51.158;0.880;2023-11-19T04:58:06;1005.44;;;10.625;96.7506
73306;BME280;61530;51.158;0.880;2023-11-19T04:59:09;1005.43;;;10.625;96.2283
73306;BME280;61530;51.158;0.880;2023-11-19T05:00:13;1005.48;;;10.625;97.4372
73306;BME280;61530;51.158;0.880;2023-11-19T05:01:15;1005.42;;;10.6875;96.5787
73306;BME280;61530;51.158;0.880;2023-11-19T05:02:18;1005.43;;;10.6875;95.4762
73306;BME280;61530;51.158;0.880;2023-11-19T05:03:21;1005.38;;;10.6875;97.4281
73306;BME280;61530;51.158;0.880;2023-11-19T05:04:24;1005.36;;;10.6875;100
73306;BME280;61530;51.158;0.880;2023-11-19T05:05:27;1005.34;;;10.75;97.1549
73306;BME280;61530;51.158;0.880;2023-11-19T05:06:31;1005.3;;;10.8125;99.8638
73306;BME280;61530;51.158;0.880;2023-11-19T05:07:33;1005.31;;;10.8125;100
73306;BME280;61530;51.158;0.880;2023-11-19T05:08:36;1005.36;;;10.6875;96.6556
73306;BME280;61530;51.158;0.880;2023-11-19T05:09:39;1005.24;;;10.6875;99.8493
73306;BME280;61530;51.158;0.880;2023-11-19T05:10:42;1005.2;;;10.6875;96.4091
73306;BME280;61530;51.158;0.880;2023-11-19T05:11:45;1005.15;;;10.625;99.1735
73306;BME280;61530;51.158;0.880;2023-11-19T05:12:48;1005.18;;;10.625;100
73306;BME280;61530;51.158;0.880;2023-11-19T05:13:52;1005.18;;;10.6875;100
73306;BME280;61530;51.158;0.880;2023-11-19T05:14:54;1005.22;;;10.625;100
73306;BME280;61530;51.158;0.880;2023-11-19T05:15:57;1005.19;;;10.625;100
73306;BME280;61530;51.158;0.880;2023-11-19T05:17:00;1005.25;;;10.6875;97.5993
73306;BME280;61530;51.158;0.880;2023-11-19T05:18:04;1005.24;;;10.5625;97.2729
73306;BME280;61530;51.158;0.880;2023-11-19T05:19:07;1005.24;;;10.625;98.2839
73306;BME280;61530;51.158;0.880;2023-11-19T05:20:10;1005.28;;;10.6875;97.4641
73306;BME280;61530;51.158;0.880;2023-11-19T05:21:13;1005.27;;;10.625;99.4836
73306;BME280;61530;51.158;0.880;2023-11-19T05:22:16;1005.3;;;10.75;91.8629
73306;BME280;61530;51.158;0.880;2023-11-19T05:23:19;1005.24;;;10.75;98.2996
73306;BME280;61530;51.158;0.880;2023-11-19T05:24:22;1005.25;;;10.6875;98.6812
73306;BME280;61530;51.158;0.880;2023-11-19T05:25:25;1005.27;;;10.75;95.9636
73306;BME280;61530;51.158;0.880;2023-11-19T05:26:28;1005.35;;;10.8125;96.0252
73306;BME280;61530;51.158;0.880;2023-11-19T05:27:31;1005.37;;;10.75;94.1473
73306;BME280;61530;51.158;0.880;2023-11-19T05:28:34;1005.29;;;10.6875;100
73306;BME280;61530;51.158;0.880;2023-11-19T05:29:37;1005.34;;;10.6875;96.2255
73306;BME280;61530;51.158;0.880;2023-11-19T05:30:40;1005.38;;;10.625;97.7242
73306;BME280;61530;51.158;0.880;2023-11-19T05:31:43;1005.38;;;10.625;96.4218
73306;BME280;61530;51.158;0.880;2023-11-19T05:32:46;1005.33;;;10.625;94.9656
73306;BME280;61530;51.158;0.880;2023-11-19T05:33:49;1005.34;;;10.6875;93.9814
73306;BME280;61530;51.158;0.880;2023-11-19T05:34:52;1005.31;;;10.6875;94.108